sensor_id;sensor_type;location;lat;lon;timestamp;P1;durP1;ratioP1;P2;durP2;ratioP2
1136;SDS011;557;48.466;7.950;2023-07-13T00:00:50;17.30;;;16.40;;
1136;SDS011;557;48.466;7.950;2023-07-13T00:03:39;16.70;;;15.90;;
1136;SDS011;557;48.466;7.950;2023-07-13T00:06:26;17.20;;;15.90;;
1136;SDS011;557;48.466;7.950;2023-07-13T00:09:18;16.83;;;15.77;;
1136;SDS011;557;48.466;7.950;2023-07-13T00:12:22;16.70;;;15.80;;
1136;SDS011;557;48.466;7.950;2023-07-13T00:15:12;16.70;;;15.90;;
1136;SDS011;557;48.466;7.950;2023-07-13T00:18:02;16.90;;;15.90;;
1136;SDS011;557;48.466;7.950;2023-07-13T00:20:50;16.20;;;15.40;;
1136;SDS011;557;48.466;7.950;2023-07-13T00:23:38;15.63;;;14.93;;
1136;SDS011;557;48.466;7.950;2023-07-13T00:26:26;16.70;;;15.70;;
1136;SDS011;557;48.466;7.950;2023-07-13T00:29:15;17.00;;;16.03;;
1136;SDS011;557;48.466;7.950;2023-07-13T00:32:03;17.53;;;16.30;;
1136;SDS011;557;48.466;7.950;2023-07-13T00:34:51;16.60;;;15.70;;
1136;SDS011;557;48.466;7.950;2023-07-13T00:37:39;16.20;;;15.40;;
1136;SDS011;557;48.466;7.950;2023-07-13T00:40:26;16.43;;;15.63;;
1136;SDS011;557;48.466;7.950;2023-07-13T00:43:15;15.83;;;15.10;;
1136;SDS011;557;48.466;7.950;2023-07-13T00:46:16;15.60;;;14.80;;
1136;SDS011;557;48.466;7.950;2023-07-13T00:52:02;15.67;;;14.87;;
1136;SDS011;557;48.466;7.950;2023-07-13T00:55:06;16.10;;;15.13;;
1136;SDS011;557;48.466;7.950;2023-07-13T00:57:54;15.70;;;15.00;;
1136;SDS011;557;48.466;7.950;2023-07-13T01:00:42;16.00;;;15.20;;
1136;SDS011;557;48.466;7.950;2023-07-13T01:03:32;16.03;;;15.20;;
1136;SDS011;557;48.466;7.950;2023-07-13T01:06:21;15.40;;;14.60;;
1136;SDS011;557;48.466;7.950;2023-07-13T01:09:08;15.47;;;14.57;;
1136;SDS011;557;48.466;7.950;2023-07-13T01:11:57;14.90;;;14.20;;
1136;SDS011;557;48.466;7.950;2023-07-13T01:14:45;15.40;;;14.50;;
1136;SDS011;557;48.466;7.950;2023-07-13T01:17:33;16.73;;;15.67;;
1136;SDS011;557;48.466;7.950;2023-07-13T01:20:22;15.13;;;14.23;;
1136;SDS011;557;48.466;7.950;2023-07-13T01:23:12;13.93;;;13.23;;
1136;SDS011;557;48.466;7.950;2023-07-13T01:25:59;14.73;;;13.93;;
1136;SDS011;557;48.466;7.950;2023-07-13T01:28:47;14.40;;;13.57;;
1136;SDS011;557;48.466;7.950;2023-07-13T01:31:36;15.10;;;14.40;;
1136;SDS011;557;48.466;7.950;2023-07-13T01:34:24;14.63;;;14.03;;
1136;SDS011;557;48.466;7.950;2023-07-13T01:37:11;15.10;;;14.30;;
1136;SDS011;557;48.466;7.950;2023-07-13T01:40:01;14.80;;;14.00;;
1136;SDS011;557;48.466;7.950;2023-07-13T01:42:49;14.77;;;14.07;;
1136;SDS011;557;48.466;7.950;2023-07-13T01:45:48;14.00;;;13.40;;
1136;SDS011;557;48.466;7.950;2023-07-13T01:48:36;13.60;;;12.90;;
1136;SDS011;557;48.466;7.950;2023-07-13T01:51:23;13.90;;;13.20;;
1136;SDS011;557;48.466;7.950;2023-07-13T01:54:11;14.40;;;13.40;;
1136;SDS011;557;48.466;7.950;2023-07-13T01:57:00;14.70;;;13.90;;
1136;SDS011;557;48.466;7.950;2023-07-13T01:59:48;14.03;;;13.43;;
1136;SDS011;557;48.466;7.950;2023-07-13T02:02:36;14.50;;;13.83;;
1136;SDS011;557;48.466;7.950;2023-07-13T02:05:24;13.53;;;12.93;;
1136;SDS011;557;48.466;7.950;2023-07-13T02:08:12;13.60;;;13.00;;
1136;SDS011;557;48.466;7.950;2023-07-13T02:10:59;13.47;;;12.80;;
1136;SDS011;557;48.466;7.950;2023-07-13T02:13:48;13.80;;;13.10;;
1136;SDS011;557;48.466;7.950;2023-07-13T02:16:36;14.20;;;13.50;;
1136;SDS011;557;48.466;7.950;2023-07-13T02:19:24;13.77;;;13.17;;
1136;SDS011;557;48.466;7.950;2023-07-13T02:22:11;13.33;;;12.70;;
1136;SDS011;557;48.466;7.950;2023-07-13T02:24:59;13.80;;;13.00;;
1136;SDS011;557;48.466;7.950;2023-07-13T02:27:46;13.17;;;12.47;;
1136;SDS011;557;48.466;7.950;2023-07-13T02:30:36;13.00;;;12.30;;
1136;SDS011;557;48.466;7.950;2023-07-13T02:33:23;12.43;;;11.83;;
1136;SDS011;557;48.466;7.950;2023-07-13T02:36:11;12.30;;;11.80;;
1136;SDS011;557;48.466;7.950;2023-07-13T02:39:00;12.40;;;11.80;;
1136;SDS011;557;48.466;7.950;2023-07-13T02:41:48;12.53;;;11.90;;
1136;SDS011;557;48.466;7.950;2023-07-13T02:44:35;12.20;;;11.60;;
1136;SDS011;557;48.466;7.950;2023-07-13T02:47:24;12.57;;;12.03;;
1136;SDS011;557;48.466;7.950;2023-07-13T02:50:12;12.70;;;12.10;;
1136;SDS011;557;48.466;7.950;2023-07-13T02:52:59;12.53;;;11.93;;
1136;SDS011;557;48.466;7.950;2023-07-13T02:55:46;12.00;;;11.20;;
1136;SDS011;557;48.466;7.950;2023-07-13T02:58:33;11.40;;;10.90;;
1136;SDS011;557;48.466;7.950;2023-07-13T03:01:24;12.53;;;11.83;;
1136;SDS011;557;48.466;7.950;2023-07-13T03:04:13;11.20;;;10.53;;
1136;SDS011;557;48.466;7.950;2023-07-13T03:07:00;11.43;;;10.93;;
1136;SDS011;557;48.466;7.950;2023-07-13T03:09:47;10.87;;;10.30;;
1136;SDS011;557;48.466;7.950;2023-07-13T03:12:35;10.00;;;9.60;;
1136;SDS011;557;48.466;7.950;2023-07-13T03:15:22;11.77;;;10.87;;
1136;SDS011;557;48.466;7.950;2023-07-13T03:18:10;10.37;;;9.87;;
1136;SDS011;557;48.466;7.950;2023-07-13T03:20:59;10.03;;;9.33;;
1136;SDS011;557;48.466;7.950;2023-07-13T03:23:46;10.30;;;9.80;;
1136;SDS011;557;48.466;7.950;2023-07-13T03:26:34;10.90;;;10.30;;
1136;SDS011;557;48.466;7.950;2023-07-13T03:29:21;10.40;;;10.00;;
1136;SDS011;557;48.466;7.950;2023-07-13T03:32:08;12.20;;;11.30;;
1136;SDS011;557;48.466;7.950;2023-07-13T03:34:56;10.63;;;10.10;;
1136;SDS011;557;48.466;7.950;2023-07-13T03:37:45;10.70;;;10.10;;
1136;SDS011;557;48.466;7.950;2023-07-13T03:40:32;11.20;;;10.50;;
1136;SDS011;557;48.466;7.950;2023-07-13T03:43:20;10.80;;;10.10;;
1136;SDS011;557;48.466;7.950;2023-07-13T03:46:07;10.03;;;9.40;;
1136;SDS011;557;48.466;7.950;2023-07-13T03:48:55;10.60;;;10.00;;
1136;SDS011;557;48.466;7.950;2023-07-13T03:51:42;10.37;;;9.87;;
1136;SDS011;557;48.466;7.950;2023-07-13T03:54:31;10.27;;;9.57;;
1136;SDS011;557;48.466;7.950;2023-07-13T03:57:18;9.03;;;8.53;;
1136;SDS011;557;48.466;7.950;2023-07-13T04:00:06;10.03;;;9.47;;
1136;SDS011;557;48.466;7.950;2023-07-13T04:02:54;10.03;;;9.43;;
1136;SDS011;557;48.466;7.950;2023-07-13T04:05:41;9.47;;;8.77;;
1136;SDS011;557;48.466;7.950;2023-07-13T04:08:29;9.67;;;9.07;;
1136;SDS011;557;48.466;7.950;2023-07-13T04:11:20;10.13;;;9.50;;
1136;SDS011;557;48.466;7.950;2023-07-13T04:14:08;10.50;;;9.83;;
1136;SDS011;557;48.466;7.950;2023-07-13T04:16:56;11.07;;;10.37;;
1136;SDS011;557;48.466;7.950;2023-07-13T04:19:43;10.20;;;9.60;;
1136;SDS011;557;48.466;7.950;2023-07-13T04:22:30;10.40;;;9.73;;
1136;SDS011;557;48.466;7.950;2023-07-13T04:25:17;10.07;;;9.47;;
1136;SDS011;557;48.466;7.950;2023-07-13T04:28:06;11.27;;;10.30;;
1136;SDS011;557;48.466;7.950;2023-07-13T04:30:54;9.20;;;8.70;;
1136;SDS011;557;48.466;7.950;2023-07-13T04:33:41;8.93;;;8.50;;
1136;SDS011;557;48.466;7.950;2023-07-13T04:36:29;10.20;;;9.60;;
1136;SDS011;557;48.466;7.950;2023-07-13T04:39:16;11.00;;;10.30;;
1136;SDS011;557;48.466;7.950;2023-07-13T04:42:04;10.10;;;9.60;;
1136;SDS011;557;48.466;7.950;2023-07-13T04:44:53;11.30;;;10.70;;
1136;SDS011;557;48.466;7.950;2023-07-13T04:47:40;11.30;;;10.50;;
1136;SDS011;557;48.466;7.950;2023-07-13T04:50:28;11.13;;;10.30;;
1136;SDS011;557;48.466;7.950;2023-07-13T04:53:15;10.30;;;9.77;;
1136;SDS011;557;48.466;7.950;2023-07-13T04:56:03;10.10;;;9.50;;
1136;SDS011;557;48.466;7.950;2023-07-13T04:58:51;10.30;;;9.60;;
1136;SDS011;557;48.466;7.950;2023-07-13T05:01:39;10.93;;;10.33;;
1136;SDS011;557;48.466;7.950;2023-07-13T05:04:27;11.10;;;10.40;;
1136;SDS011;557;48.466;7.950;2023-07-13T05:07:14;10.70;;;10.10;;
1136;SDS011;557;48.466;7.950;2023-07-13T05:10:02;11.67;;;10.87;;
1136;SDS011;557;48.466;7.950;2023-07-13T05:12:49;12.40;;;11.37;;
1136;SDS011;557;48.466;7.950;2023-07-13T05:15:37;11.60;;;10.90;;
1136;SDS011;557;48.466;7.950;2023-07-13T05:18:25;12.23;;;11.53;;
1136;SDS011;557;48.466;7.950;2023-07-13T05:21:13;12.20;;;11.50;;
1136;SDS011;557;48.466;7.950;2023-07-13T05:24:00;12.07;;;11.27;;
1136;SDS011;557;48.466;7.950;2023-07-13T05:26:47;11.97;;;11.27;;
1136;SDS011;557;48.466;7.950;2023-07-13T05:29:35;11.90;;;11.20;;
1136;SDS011;557;48.466;7.950;2023-07-13T05:32:22;12.53;;;11.73;;
1136;SDS011;557;48.466;7.950;2023-07-13T05:35:11;12.40;;;11.70;;
1136;SDS011;557;48.466;7.950;2023-07-13T05:37:58;12.93;;;12.20;;
1136;SDS011;557;48.466;7.950;2023-07-13T05:40:46;11.87;;;11.27;;
1136;SDS011;557;48.466;7.950;2023-07-13T05:43:34;12.90;;;12.13;;
1136;SDS011;557;48.466;7.950;2023-07-13T05:46:21;11.50;;;10.90;;
1136;SDS011;557;48.466;7.950;2023-07-13T05:49:08;12.40;;;11.80;;
1136;SDS011;557;48.466;7.950;2023-07-13T05:51:57;12.13;;;11.53;;
1136;SDS011;557;48.466;7.950;2023-07-13T05:54:45;12.87;;;11.97;;
1136;SDS011;557;48.466;7.950;2023-07-13T05:57:32;12.43;;;11.73;;
1136;SDS011;557;48.466;7.950;2023-07-13T06:00:19;11.90;;;11.40;;
1136;SDS011;557;48.466;7.950;2023-07-13T06:03:07;13.17;;;12.37;;
1136;SDS011;557;48.466;7.950;2023-07-13T06:05:54;12.10;;;11.50;;
1136;SDS011;557;48.466;7.950;2023-07-13T06:08:43;12.67;;;12.00;;
1136;SDS011;557;48.466;7.950;2023-07-13T06:11:30;13.00;;;12.40;;
1136;SDS011;557;48.466;7.950;2023-07-13T06:14:17;13.27;;;12.43;;
1136;SDS011;557;48.466;7.950;2023-07-13T06:17:06;13.33;;;12.63;;
1136;SDS011;557;48.466;7.950;2023-07-13T06:19:53;13.17;;;12.47;;
1136;SDS011;557;48.466;7.950;2023-07-13T06:22:41;12.97;;;12.27;;
1136;SDS011;557;48.466;7.950;2023-07-13T06:25:29;13.40;;;12.47;;
1136;SDS011;557;48.466;7.950;2023-07-13T06:28:17;13.67;;;12.83;;
1136;SDS011;557;48.466;7.950;2023-07-13T06:31:05;13.83;;;13.13;;
1136;SDS011;557;48.466;7.950;2023-07-13T06:33:53;14.10;;;13.40;;
1136;SDS011;557;48.466;7.950;2023-07-13T06:36:40;14.60;;;13.60;;
1136;SDS011;557;48.466;7.950;2023-07-13T06:39:27;13.83;;;12.93;;
1136;SDS011;557;48.466;7.950;2023-07-13T06:42:16;14.50;;;13.50;;
1136;SDS011;557;48.466;7.950;2023-07-13T06:45:04;14.17;;;13.27;;
1136;SDS011;557;48.466;7.950;2023-07-13T06:47:52;14.97;;;14.07;;
1136;SDS011;557;48.466;7.950;2023-07-13T06:50:41;14.43;;;13.73;;
1136;SDS011;557;48.466;7.950;2023-07-13T06:53:28;14.70;;;13.80;;
1136;SDS011;557;48.466;7.950;2023-07-13T06:56:16;15.20;;;14.40;;
1136;SDS011;557;48.466;7.950;2023-07-13T06:59:04;15.10;;;14.30;;
1136;SDS011;557;48.466;7.950;2023-07-13T07:01:52;15.67;;;14.80;;
1136;SDS011;557;48.466;7.950;2023-07-13T07:04:39;15.40;;;14.60;;
1136;SDS011;557;48.466;7.950;2023-07-13T07:07:26;15.70;;;14.90;;
1136;SDS011;557;48.466;7.950;2023-07-13T07:10:14;15.30;;;14.20;;
1136;SDS011;557;48.466;7.950;2023-07-13T07:13:01;15.80;;;14.70;;
1136;SDS011;557;48.466;7.950;2023-07-13T07:15:51;15.80;;;14.90;;
1136;SDS011;557;48.466;7.950;2023-07-13T07:18:38;15.33;;;14.53;;
1136;SDS011;557;48.466;7.950;2023-07-13T07:21:25;15.93;;;14.93;;
1136;SDS011;557;48.466;7.950;2023-07-13T07:24:13;16.03;;;15.20;;
1136;SDS011;557;48.466;7.950;2023-07-13T07:27:01;15.60;;;14.70;;
1136;SDS011;557;48.466;7.950;2023-07-13T07:29:48;15.50;;;14.70;;
1136;SDS011;557;48.466;7.950;2023-07-13T07:32:37;16.03;;;15.13;;
1136;SDS011;557;48.466;7.950;2023-07-13T07:35:25;16.00;;;15.20;;
1136;SDS011;557;48.466;7.950;2023-07-13T07:38:12;16.37;;;15.47;;
1136;SDS011;557;48.466;7.950;2023-07-13T07:41:02;16.40;;;15.40;;
1136;SDS011;557;48.466;7.950;2023-07-13T07:43:50;17.20;;;16.20;;
1136;SDS011;557;48.466;7.950;2023-07-13T07:46:39;17.73;;;16.63;;
1136;SDS011;557;48.466;7.950;2023-07-13T07:49:28;17.50;;;16.30;;
1136;SDS011;557;48.466;7.950;2023-07-13T07:52:15;17.10;;;16.20;;
1136;SDS011;557;48.466;7.950;2023-07-13T07:55:03;16.80;;;15.90;;
1136;SDS011;557;48.466;7.950;2023-07-13T07:57:51;16.85;;;15.98;;
1136;SDS011;557;48.466;7.950;2023-07-13T08:00:38;17.40;;;16.40;;
1136;SDS011;557;48.466;7.950;2023-07-13T08:03:26;19.10;;;18.10;;
1136;SDS011;557;48.466;7.950;2023-07-13T08:06:14;17.25;;;16.20;;
1136;SDS011;557;48.466;7.950;2023-07-13T08:09:05;18.02;;;16.92;;
1136;SDS011;557;48.466;7.950;2023-07-13T08:11:53;17.73;;;16.83;;
1136;SDS011;557;48.466;7.950;2023-07-13T08:14:41;17.52;;;16.63;;
1136;SDS011;557;48.466;7.950;2023-07-13T08:17:28;17.93;;;16.83;;
1136;SDS011;557;48.466;7.950;2023-07-13T08:20:15;17.60;;;16.60;;
1136;SDS011;557;48.466;7.950;2023-07-13T08:23:04;19.25;;;17.85;;
1136;SDS011;557;48.466;7.950;2023-07-13T08:25:52;17.80;;;16.80;;
1136;SDS011;557;48.466;7.950;2023-07-13T08:28:40;17.90;;;16.90;;
1136;SDS011;557;48.466;7.950;2023-07-13T08:31:28;17.73;;;16.80;;
1136;SDS011;557;48.466;7.950;2023-07-13T08:34:15;18.10;;;17.10;;
1136;SDS011;557;48.466;7.950;2023-07-13T08:37:02;18.13;;;17.23;;
1136;SDS011;557;48.466;7.950;2023-07-13T08:39:51;18.30;;;17.20;;
1136;SDS011;557;48.466;7.950;2023-07-13T08:42:39;17.48;;;16.48;;
1136;SDS011;557;48.466;7.950;2023-07-13T08:45:33;18.50;;;17.00;;
1136;SDS011;557;48.466;7.950;2023-07-13T08:48:28;17.73;;;16.83;;
1136;SDS011;557;48.466;7.950;2023-07-13T08:51:24;17.77;;;16.88;;
1136;SDS011;557;48.466;7.950;2023-07-13T08:54:22;18.50;;;17.50;;
1136;SDS011;557;48.466;7.950;2023-07-13T08:57:17;18.00;;;17.00;;
1136;SDS011;557;48.466;7.950;2023-07-13T09:00:08;18.45;;;17.48;;
1136;SDS011;557;48.466;7.950;2023-07-13T09:02:57;18.30;;;17.40;;
1136;SDS011;557;48.466;7.950;2023-07-13T09:05:49;19.77;;;18.67;;
1136;SDS011;557;48.466;7.950;2023-07-13T09:08:50;18.80;;;17.67;;
1136;SDS011;557;48.466;7.950;2023-07-13T09:11:46;18.40;;;17.35;;
1136;SDS011;557;48.466;7.950;2023-07-13T09:14:44;18.00;;;17.10;;
1136;SDS011;557;48.466;7.950;2023-07-13T09:17:35;18.17;;;17.08;;
1136;SDS011;557;48.466;7.950;2023-07-13T09:20:29;17.92;;;16.88;;
1136;SDS011;557;48.466;7.950;2023-07-13T09:23:21;18.00;;;17.10;;
1136;SDS011;557;48.466;7.950;2023-07-13T09:26:19;17.45;;;16.55;;
1136;SDS011;557;48.466;7.950;2023-07-13T09:29:10;18.05;;;16.95;;
1136;SDS011;557;48.466;7.950;2023-07-13T09:32:03;18.60;;;17.30;;
1136;SDS011;557;48.466;7.950;2023-07-13T09:34:55;18.60;;;17.60;;
1136;SDS011;557;48.466;7.950;2023-07-13T09:37:43;18.52;;;17.52;;
1136;SDS011;557;48.466;7.950;2023-07-13T09:40:36;17.90;;;17.00;;
1136;SDS011;557;48.466;7.950;2023-07-13T09:43:30;19.05;;;17.95;;
1136;SDS011;557;48.466;7.950;2023-07-13T09:46:21;18.05;;;17.15;;
1136;SDS011;557;48.466;7.950;2023-07-13T09:49:10;19.58;;;18.48;;
1136;SDS011;557;48.466;7.950;2023-07-13T09:51:59;18.70;;;17.50;;
1136;SDS011;557;48.466;7.950;2023-07-13T09:54:49;19.40;;;18.20;;
1136;SDS011;557;48.466;7.950;2023-07-13T09:57:39;18.60;;;17.52;;
1136;SDS011;557;48.466;7.950;2023-07-13T10:00:34;19.50;;;18.40;;
1136;SDS011;557;48.466;7.950;2023-07-13T10:03:23;19.33;;;18.23;;
1136;SDS011;557;48.466;7.950;2023-07-13T10:06:14;19.58;;;18.38;;
1136;SDS011;557;48.466;7.950;2023-07-13T10:09:04;19.40;;;18.30;;
1136;SDS011;557;48.466;7.950;2023-07-13T10:11:54;19.50;;;18.30;;
1136;SDS011;557;48.466;7.950;2023-07-13T10:14:42;18.92;;;17.92;;
1136;SDS011;557;48.466;7.950;2023-07-13T10:17:30;19.15;;;18.15;;
1136;SDS011;557;48.466;7.950;2023-07-13T10:20:19;19.33;;;17.90;;
1136;SDS011;557;48.466;7.950;2023-07-13T10:23:11;18.95;;;17.85;;
1136;SDS011;557;48.466;7.950;2023-07-13T10:26:12;18.70;;;17.70;;
1136;SDS011;557;48.466;7.950;2023-07-13T10:29:04;19.42;;;18.27;;
1136;SDS011;557;48.466;7.950;2023-07-13T10:31:57;19.17;;;18.10;;
1136;SDS011;557;48.466;7.950;2023-07-13T10:34:46;19.73;;;18.63;;
1136;SDS011;557;48.466;7.950;2023-07-13T10:37:38;18.95;;;17.65;;
1136;SDS011;557;48.466;7.950;2023-07-13T10:40:36;19.25;;;18.25;;
1136;SDS011;557;48.466;7.950;2023-07-13T10:43:28;19.83;;;18.20;;
1136;SDS011;557;48.466;7.950;2023-07-13T10:46:22;19.60;;;17.95;;
1136;SDS011;557;48.466;7.950;2023-07-13T10:49:12;19.75;;;18.65;;
1136;SDS011;557;48.466;7.950;2023-07-13T10:52:01;19.27;;;18.17;;
1136;SDS011;557;48.466;7.950;2023-07-13T10:54:49;19.20;;;18.10;;
1136;SDS011;557;48.466;7.950;2023-07-13T10:57:42;20.10;;;19.00;;
1136;SDS011;557;48.466;7.950;2023-07-13T11:00:30;19.65;;;18.35;;
1136;SDS011;557;48.466;7.950;2023-07-13T11:03:19;19.90;;;18.70;;
1136;SDS011;557;48.466;7.950;2023-07-13T11:06:09;19.45;;;18.45;;
1136;SDS011;557;48.466;7.950;2023-07-13T11:12:07;20.10;;;19.00;;
1136;SDS011;557;48.466;7.950;2023-07-13T11:15:11;20.10;;;19.00;;
1136;SDS011;557;48.466;7.950;2023-07-13T11:18:02;19.77;;;18.65;;
1136;SDS011;557;48.466;7.950;2023-07-13T11:20:50;19.75;;;18.50;;
1136;SDS011;557;48.466;7.950;2023-07-13T11:23:38;20.52;;;19.23;;
1136;SDS011;557;48.466;7.950;2023-07-13T11:26:39;20.35;;;19.20;;
1136;SDS011;557;48.466;7.950;2023-07-13T11:29:32;19.92;;;18.75;;
1136;SDS011;557;48.466;7.950;2023-07-13T11:32:25;19.98;;;18.67;;
1136;SDS011;557;48.466;7.950;2023-07-13T11:35:19;19.45;;;18.33;;
1136;SDS011;557;48.466;7.950;2023-07-13T11:38:12;20.65;;;19.45;;
1136;SDS011;557;48.466;7.950;2023-07-13T11:41:03;20.33;;;19.13;;
1136;SDS011;557;48.466;7.950;2023-07-13T11:43:53;21.77;;;20.27;;
1136;SDS011;557;48.466;7.950;2023-07-13T11:46:45;20.25;;;19.08;;
1136;SDS011;557;48.466;7.950;2023-07-13T11:49:48;20.80;;;19.55;;
1136;SDS011;557;48.466;7.950;2023-07-13T11:52:38;21.20;;;20.00;;
1136;SDS011;557;48.466;7.950;2023-07-13T11:55:25;20.98;;;19.70;;
1136;SDS011;557;48.466;7.950;2023-07-13T11:58:16;20.83;;;19.73;;
1136;SDS011;557;48.466;7.950;2023-07-13T12:01:15;21.58;;;20.38;;
1136;SDS011;557;48.466;7.950;2023-07-13T12:04:05;20.80;;;19.45;;
1136;SDS011;557;48.466;7.950;2023-07-13T12:06:56;20.60;;;19.40;;
1136;SDS011;557;48.466;7.950;2023-07-13T12:09:44;20.52;;;19.33;;
1136;SDS011;557;48.466;7.950;2023-07-13T12:12:32;20.00;;;18.90;;
1136;SDS011;557;48.466;7.950;2023-07-13T12:15:19;20.52;;;19.40;;
1136;SDS011;557;48.466;7.950;2023-07-13T12:18:12;21.85;;;20.55;;
1136;SDS011;557;48.466;7.950;2023-07-13T12:21:00;21.45;;;20.15;;
1136;SDS011;557;48.466;7.950;2023-07-13T12:23:50;21.17;;;19.98;;
1136;SDS011;557;48.466;7.950;2023-07-13T12:26:37;20.73;;;19.42;;
1136;SDS011;557;48.466;7.950;2023-07-13T12:29:25;21.02;;;19.63;;
1136;SDS011;557;48.466;7.950;2023-07-13T12:32:14;20.88;;;19.65;;
1136;SDS011;557;48.466;7.950;2023-07-13T12:35:12;20.08;;;18.95;;
1136;SDS011;557;48.466;7.950;2023-07-13T12:38:04;20.77;;;19.58;;
1136;SDS011;557;48.466;7.950;2023-07-13T12:40:58;20.80;;;19.60;;
1136;SDS011;557;48.466;7.950;2023-07-13T12:43:47;21.42;;;19.70;;
1136;SDS011;557;48.466;7.950;2023-07-13T12:46:35;21.70;;;20.40;;
1136;SDS011;557;48.466;7.950;2023-07-13T12:49:23;21.35;;;19.95;;
1136;SDS011;557;48.466;7.950;2023-07-13T12:52:14;21.35;;;19.88;;
1136;SDS011;557;48.466;7.950;2023-07-13T12:55:04;20.40;;;19.20;;
1136;SDS011;557;48.466;7.950;2023-07-13T12:57:57;21.38;;;19.92;;
1136;SDS011;557;48.466;7.950;2023-07-13T13:00:48;20.60;;;19.30;;
1136;SDS011;557;48.466;7.950;2023-07-13T13:03:38;21.30;;;20.10;;
1136;SDS011;557;48.466;7.950;2023-07-13T13:06:27;20.45;;;19.25;;
1136;SDS011;557;48.466;7.950;2023-07-13T13:09:16;20.60;;;19.35;;
1136;SDS011;557;48.466;7.950;2023-07-13T13:12:06;20.33;;;19.13;;
1136;SDS011;557;48.466;7.950;2023-07-13T13:14:57;20.83;;;19.63;;
1136;SDS011;557;48.466;7.950;2023-07-13T13:17:44;20.98;;;19.77;;
1136;SDS011;557;48.466;7.950;2023-07-13T13:20:31;20.70;;;19.50;;
1136;SDS011;557;48.466;7.950;2023-07-13T13:23:19;20.83;;;19.63;;
1136;SDS011;557;48.466;7.950;2023-07-13T13:26:08;20.70;;;19.42;;
1136;SDS011;557;48.466;7.950;2023-07-13T13:28:57;20.60;;;19.30;;
1136;SDS011;557;48.466;7.950;2023-07-13T13:31:46;20.95;;;19.70;;
1136;SDS011;557;48.466;7.950;2023-07-13T13:34:34;20.48;;;19.27;;
1136;SDS011;557;48.466;7.950;2023-07-13T13:37:22;20.27;;;19.17;;
1136;SDS011;557;48.466;7.950;2023-07-13T13:40:14;20.10;;;19.00;;
1136;SDS011;557;48.466;7.950;2023-07-13T13:43:04;20.58;;;19.38;;
1136;SDS011;557;48.466;7.950;2023-07-13T13:46:01;21.08;;;19.88;;
1136;SDS011;557;48.466;7.950;2023-07-13T13:48:50;20.60;;;19.40;;
1136;SDS011;557;48.466;7.950;2023-07-13T13:51:37;21.17;;;19.85;;
1136;SDS011;557;48.466;7.950;2023-07-13T13:54:25;20.73;;;19.55;;
1136;SDS011;557;48.466;7.950;2023-07-13T13:57:12;20.52;;;19.42;;
1136;SDS011;557;48.466;7.950;2023-07-13T13:59:59;20.75;;;19.45;;
1136;SDS011;557;48.466;7.950;2023-07-13T14:02:47;20.02;;;18.83;;
1136;SDS011;557;48.466;7.950;2023-07-13T14:05:38;20.50;;;19.30;;
1136;SDS011;557;48.466;7.950;2023-07-13T14:08:26;22.73;;;21.38;;
1136;SDS011;557;48.466;7.950;2023-07-13T14:11:13;21.00;;;19.70;;
1136;SDS011;557;48.466;7.950;2023-07-13T14:14:02;20.50;;;19.30;;
1136;SDS011;557;48.466;7.950;2023-07-13T14:16:50;20.92;;;19.73;;
1136;SDS011;557;48.466;7.950;2023-07-13T14:19:38;20.80;;;19.40;;
1136;SDS011;557;48.466;7.950;2023-07-13T14:22:27;20.73;;;19.52;;
1136;SDS011;557;48.466;7.950;2023-07-13T14:25:15;20.77;;;19.67;;
1136;SDS011;557;48.466;7.950;2023-07-13T14:28:04;20.67;;;19.48;;
1136;SDS011;557;48.466;7.950;2023-07-13T14:31:04;21.23;;;19.75;;
1136;SDS011;557;48.466;7.950;2023-07-13T14:33:51;19.50;;;18.40;;
1136;SDS011;557;48.466;7.950;2023-07-13T14:36:39;19.60;;;18.50;;
1136;SDS011;557;48.466;7.950;2023-07-13T14:39:31;19.92;;;18.83;;
1136;SDS011;557;48.466;7.950;2023-07-13T14:42:18;19.63;;;18.52;;
1136;SDS011;557;48.466;7.950;2023-07-13T14:45:11;19.90;;;18.73;;
1136;SDS011;557;48.466;7.950;2023-07-13T14:48:01;20.15;;;18.90;;
1136;SDS011;557;48.466;7.950;2023-07-13T14:50:50;19.60;;;18.60;;
1136;SDS011;557;48.466;7.950;2023-07-13T14:53:41;20.40;;;19.10;;
1136;SDS011;557;48.466;7.950;2023-07-13T14:56:29;20.10;;;18.90;;
1136;SDS011;557;48.466;7.950;2023-07-13T14:59:17;20.80;;;19.50;;
1136;SDS011;557;48.466;7.950;2023-07-13T15:02:11;20.48;;;19.30;;
1136;SDS011;557;48.466;7.950;2023-07-13T15:05:05;20.05;;;18.95;;
1136;SDS011;557;48.466;7.950;2023-07-13T15:07:59;20.00;;;18.80;;
1136;SDS011;557;48.466;7.950;2023-07-13T15:10:49;20.08;;;18.98;;
1136;SDS011;557;48.466;7.950;2023-07-13T15:13:38;20.30;;;19.10;;
1136;SDS011;557;48.466;7.950;2023-07-13T15:16:25;20.27;;;18.98;;
1136;SDS011;557;48.466;7.950;2023-07-13T15:19:13;19.88;;;18.67;;
1136;SDS011;557;48.466;7.950;2023-07-13T15:22:01;20.40;;;19.20;;
1136;SDS011;557;48.466;7.950;2023-07-13T15:24:49;21.08;;;19.80;;
1136;SDS011;557;48.466;7.950;2023-07-13T15:27:37;20.42;;;19.33;;
1136;SDS011;557;48.466;7.950;2023-07-13T15:30:27;20.15;;;18.98;;
1136;SDS011;557;48.466;7.950;2023-07-13T15:33:16;21.40;;;20.20;;
1136;SDS011;557;48.466;7.950;2023-07-13T15:36:07;20.75;;;19.35;;
1136;SDS011;557;48.466;7.950;2023-07-13T15:38:55;20.30;;;19.20;;
1136;SDS011;557;48.466;7.950;2023-07-13T15:41:43;20.77;;;19.48;;
1136;SDS011;557;48.466;7.950;2023-07-13T15:44:32;20.70;;;19.42;;
1136;SDS011;557;48.466;7.950;2023-07-13T15:47:21;20.92;;;19.63;;
1136;SDS011;557;48.466;7.950;2023-07-13T15:50:11;20.30;;;19.10;;
1136;SDS011;557;48.466;7.950;2023-07-13T15:52:59;20.73;;;19.52;;
1136;SDS011;557;48.466;7.950;2023-07-13T15:55:48;21.10;;;19.90;;
1136;SDS011;557;48.466;7.950;2023-07-13T15:58:36;21.50;;;20.00;;
1136;SDS011;557;48.466;7.950;2023-07-13T16:01:24;20.73;;;19.52;;
1136;SDS011;557;48.466;7.950;2023-07-13T16:04:14;21.02;;;19.70;;
1136;SDS011;557;48.466;7.950;2023-07-13T16:07:03;20.08;;;18.90;;
1136;SDS011;557;48.466;7.950;2023-07-13T16:09:50;20.35;;;19.15;;
1136;SDS011;557;48.466;7.950;2023-07-13T16:12:38;20.85;;;19.65;;
1136;SDS011;557;48.466;7.950;2023-07-13T16:15:25;20.13;;;18.92;;
1136;SDS011;557;48.466;7.950;2023-07-13T16:18:13;20.92;;;19.52;;
1136;SDS011;557;48.466;7.950;2023-07-13T16:21:04;20.83;;;19.52;;
1136;SDS011;557;48.466;7.950;2023-07-13T16:23:57;20.60;;;19.40;;
1136;SDS011;557;48.466;7.950;2023-07-13T16:26:46;20.27;;;19.15;;
1136;SDS011;557;48.466;7.950;2023-07-13T16:29:34;21.70;;;20.23;;
1136;SDS011;557;48.466;7.950;2023-07-13T16:32:21;21.13;;;19.73;;
1136;SDS011;557;48.466;7.950;2023-07-13T16:35:09;21.25;;;19.88;;
1136;SDS011;557;48.466;7.950;2023-07-13T16:37:58;20.92;;;19.65;;
1136;SDS011;557;48.466;7.950;2023-07-13T16:40:45;20.95;;;19.65;;
1136;SDS011;557;48.466;7.950;2023-07-13T16:43:33;20.75;;;19.45;;
1136;SDS011;557;48.466;7.950;2023-07-13T16:46:21;20.98;;;19.60;;
1136;SDS011;557;48.466;7.950;2023-07-13T16:49:13;21.08;;;19.80;;
1136;SDS011;557;48.466;7.950;2023-07-13T16:52:08;20.40;;;19.20;;
1136;SDS011;557;48.466;7.950;2023-07-13T16:54:58;20.80;;;19.60;;
1136;SDS011;557;48.466;7.950;2023-07-13T16:57:46;21.52;;;20.17;;
1136;SDS011;557;48.466;7.950;2023-07-13T17:00:33;20.50;;;19.38;;
1136;SDS011;557;48.466;7.950;2023-07-13T17:03:23;20.63;;;19.33;;
1136;SDS011;557;48.466;7.950;2023-07-13T17:06:20;20.70;;;19.60;;
1136;SDS011;557;48.466;7.950;2023-07-13T17:09:12;19.80;;;18.60;;
1136;SDS011;557;48.466;7.950;2023-07-13T17:12:01;20.27;;;19.00;;
1136;SDS011;557;48.466;7.950;2023-07-13T17:14:49;19.58;;;18.38;;
1136;SDS011;557;48.466;7.950;2023-07-13T17:17:37;19.02;;;17.98;;
1136;SDS011;557;48.466;7.950;2023-07-13T17:20:32;20.52;;;18.73;;
1136;SDS011;557;48.466;7.950;2023-07-13T17:23:25;19.75;;;18.63;;